AAL411 KAUS-KSAN
Flight info
| Callsign | AAL411 |
|---|---|
| Flight time | 2h 51m |
| Altitude | 34000 |
| Route | MUCKY3 MUCKY DCT JCT J2 ELP/N0462F360 J2 HOGGZ LUCKI1 |
| Aircraft | A320/M-SDE3FGHIRWY/LB1 |
Departure
| Time | 2026-04-25 09:53 |
|---|---|
| Airport | Austin Bergstrom International Airport (KAUS) |
Arrival
| Time | 2026-04-25 12:45 |
|---|---|
| Airport | San Diego International Airport (KSAN) |
| Time | Latitude | Longitude | Altitude | Speed | Heading |
|---|---|---|---|---|---|
| 2026-04-25 09:19 | 30.20174 | -97.67050 | 528 ft | 0 kts | 31° |
| 2026-04-25 09:42 | 30.20172 | -97.67052 | 527 ft | 3 kts | 31° |
| 2026-04-25 09:42 | 30.20149 | -97.67068 | 527 ft | 4 kts | 33° |
| 2026-04-25 09:43 | 30.20126 | -97.67086 | 527 ft | 4 kts | 37° |
| 2026-04-25 09:43 | 30.20106 | -97.67106 | 527 ft | 4 kts | 47° |
| 2026-04-25 09:43 | 30.20092 | -97.67131 | 527 ft | 4 kts | 82° |
| 2026-04-25 09:43 | 30.20091 | -97.67137 | 527 ft | 0 kts | 89° |
| 2026-04-25 09:45 | 30.20091 | -97.67135 | 527 ft | 1 kts | 88° |
| 2026-04-25 09:46 | 30.20091 | -97.67123 | 527 ft | 2 kts | 88° |
| 2026-04-25 09:46 | 30.20092 | -97.67101 | 527 ft | 3 kts | 88° |
| 2026-04-25 09:46 | 30.20093 | -97.67069 | 527 ft | 5 kts | 88° |
| 2026-04-25 09:46 | 30.20094 | -97.67027 | 527 ft | 6 kts | 89° |
| 2026-04-25 09:47 | 30.20067 | -97.66991 | 527 ft | 7 kts | 161° |
| 2026-04-25 09:47 | 30.20016 | -97.66987 | 527 ft | 8 kts | 179° |
| 2026-04-25 09:47 | 30.19952 | -97.66986 | 527 ft | 10 kts | 179° |
| 2026-04-25 09:47 | 30.19903 | -97.66936 | 527 ft | 11 kts | 97° |
| 2026-04-25 09:48 | 30.19904 | -97.66842 | 527 ft | 12 kts | 88° |
| 2026-04-25 09:48 | 30.19906 | -97.66737 | 527 ft | 14 kts | 89° |
| 2026-04-25 09:48 | 30.19907 | -97.66623 | 527 ft | 15 kts | 89° |
| 2026-04-25 09:48 | 30.19910 | -97.66496 | 527 ft | 17 kts | 88° |
| 2026-04-25 09:49 | 30.19913 | -97.66352 | 527 ft | 19 kts | 89° |
| 2026-04-25 09:49 | 30.19915 | -97.66197 | 527 ft | 20 kts | 89° |
| 2026-04-25 09:49 | 30.19920 | -97.66041 | 527 ft | 17 kts | 88° |
| 2026-04-25 09:49 | 30.19923 | -97.65931 | 527 ft | 9 kts | 78° |
| 2026-04-25 09:50 | 30.19978 | -97.65906 | 526 ft | 10 kts | 358° |
| 2026-04-25 09:50 | 30.20051 | -97.65907 | 527 ft | 11 kts | 359° |
| 2026-04-25 09:50 | 30.20128 | -97.65909 | 527 ft | 12 kts | 358° |
| 2026-04-25 09:50 | 30.20211 | -97.65912 | 527 ft | 12 kts | 359° |
| 2026-04-25 09:51 | 30.20298 | -97.65913 | 527 ft | 13 kts | 358° |
| 2026-04-25 09:51 | 30.20358 | -97.65909 | 528 ft | 6 kts | 25° |
| 2026-04-25 09:51 | 30.20373 | -97.65867 | 528 ft | 6 kts | 90° |
| 2026-04-25 09:51 | 30.20372 | -97.65820 | 529 ft | 6 kts | 89° |
| 2026-04-25 09:52 | 30.20345 | -97.65791 | 529 ft | 7 kts | 167° |
| 2026-04-25 09:52 | 30.20286 | -97.65790 | 527 ft | 10 kts | 179° |
| 2026-04-25 09:52 | 30.20017 | -97.65783 | 526 ft | 73 kts | 179° |
| 2026-04-25 09:52 | 30.19307 | -97.65762 | 529 ft | 128 kts | 179° |
| 2026-04-25 09:53 | 30.18290 | -97.65729 | 632 ft | 160 kts | 178° |
| 2026-04-25 09:53 | 30.17138 | -97.65657 | 1085 ft | 170 kts | 177° |
| 2026-04-25 09:53 | 30.15931 | -97.65577 | 1597 ft | 177 kts | 177° |
| 2026-04-25 09:53 | 30.14761 | -97.65151 | 2181 ft | 184 kts | 139° |
| 2026-04-25 09:54 | 30.14080 | -97.63877 | 2528 ft | 199 kts | 120° |
| 2026-04-25 09:54 | 30.13203 | -97.62554 | 2703 ft | 215 kts | 139° |
| 2026-04-25 09:54 | 30.12261 | -97.61084 | 2913 ft | 244 kts | 112° |
| 2026-04-25 09:54 | 30.12051 | -97.59065 | 3255 ft | 268 kts | 83° |
| 2026-04-25 09:55 | 30.12774 | -97.57042 | 3924 ft | 277 kts | 53° |
| 2026-04-25 09:55 | 30.14115 | -97.55430 | 4765 ft | 278 kts | 43° |
| 2026-04-25 09:55 | 30.15525 | -97.53931 | 5560 ft | 278 kts | 42° |
| 2026-04-25 09:55 | 30.16978 | -97.52438 | 6314 ft | 280 kts | 34° |
| 2026-04-25 09:56 | 30.18758 | -97.51575 | 6951 ft | 280 kts | 6° |
| 2026-04-25 09:56 | 30.20678 | -97.51567 | 7658 ft | 279 kts | 354° |
| 2026-04-25 09:56 | 30.22615 | -97.51767 | 8355 ft | 280 kts | 351° |
| 2026-04-25 09:56 | 30.24461 | -97.52465 | 8999 ft | 281 kts | 326° |
| 2026-04-25 09:57 | 30.25845 | -97.54057 | 9670 ft | 282 kts | 301° |
| 2026-04-25 09:57 | 30.26478 | -97.56202 | 10164 ft | 293 kts | 278° |
| 2026-04-25 09:57 | 30.26614 | -97.58648 | 10288 ft | 315 kts | 273° |
| 2026-04-25 09:57 | 30.26682 | -97.61229 | 10415 ft | 334 kts | 273° |
| 2026-04-25 09:58 | 30.26757 | -97.63979 | 10681 ft | 347 kts | 273° |
| 2026-04-25 09:58 | 30.26853 | -97.66789 | 11194 ft | 351 kts | 274° |
| 2026-04-25 09:58 | 30.26970 | -97.69632 | 11768 ft | 354 kts | 274° |
| 2026-04-25 09:58 | 30.27100 | -97.72481 | 12365 ft | 356 kts | 274° |
| 2026-04-25 09:59 | 30.27232 | -97.75368 | 12958 ft | 359 kts | 274° |
| 2026-04-25 09:59 | 30.27362 | -97.78260 | 13552 ft | 361 kts | 274° |
| 2026-04-25 09:59 | 30.27446 | -97.80194 | 13903 ft | 363 kts | 274° |
| 2026-04-25 09:59 | 30.27613 | -97.84108 | 14639 ft | 365 kts | 273° |
| 2026-04-25 10:00 | 30.27736 | -97.87022 | 15186 ft | 367 kts | 273° |
| 2026-04-25 10:00 | 30.27861 | -97.89990 | 15720 ft | 369 kts | 273° |
| 2026-04-25 10:00 | 30.27985 | -97.92929 | 16273 ft | 370 kts | 273° |
| 2026-04-25 10:00 | 30.28109 | -97.95916 | 16838 ft | 372 kts | 273° |
| 2026-04-25 10:01 | 30.28232 | -97.98924 | 17394 ft | 375 kts | 273° |
| 2026-04-25 10:01 | 30.28355 | -98.01961 | 17960 ft | 377 kts | 273° |
| 2026-04-25 10:01 | 30.28477 | -98.04982 | 18468 ft | 379 kts | 273° |
| 2026-04-25 10:01 | 30.28559 | -98.07022 | 18806 ft | 380 kts | 273° |
| 2026-04-25 10:02 | 30.28723 | -98.11095 | 19487 ft | 383 kts | 273° |
| 2026-04-25 10:02 | 30.28844 | -98.14184 | 20004 ft | 384 kts | 273° |
| 2026-04-25 10:02 | 30.28924 | -98.16243 | 20336 ft | 385 kts | 273° |
| 2026-04-25 10:02 | 30.29139 | -98.20372 | 20949 ft | 387 kts | 278° |
| 2026-04-25 10:03 | 30.29461 | -98.22408 | 21252 ft | 388 kts | 283° |
| 2026-04-25 10:03 | 30.30070 | -98.25469 | 21708 ft | 389 kts | 283° |
| 2026-04-25 10:03 | 30.30679 | -98.28547 | 22147 ft | 391 kts | 283° |
| 2026-04-25 10:03 | 30.31272 | -98.31577 | 22566 ft | 392 kts | 282° |
| 2026-04-25 10:04 | 30.31877 | -98.34684 | 22981 ft | 394 kts | 282° |
| 2026-04-25 10:04 | 30.32474 | -98.37759 | 23392 ft | 395 kts | 282° |
| 2026-04-25 10:04 | 30.33080 | -98.40871 | 23734 ft | 396 kts | 282° |
| 2026-04-25 10:04 | 30.33686 | -98.43985 | 24031 ft | 397 kts | 282° |
| 2026-04-25 10:05 | 30.34295 | -98.47121 | 24375 ft | 398 kts | 282° |
| 2026-04-25 10:05 | 30.34897 | -98.50219 | 24696 ft | 398 kts | 282° |
| 2026-04-25 10:05 | 30.35508 | -98.53371 | 25018 ft | 400 kts | 282° |
| 2026-04-25 10:05 | 30.36116 | -98.56519 | 25342 ft | 401 kts | 282° |
| 2026-04-25 10:06 | 30.36723 | -98.59679 | 25676 ft | 401 kts | 282° |
| 2026-04-25 10:06 | 30.37330 | -98.62845 | 26008 ft | 402 kts | 282° |
| 2026-04-25 10:06 | 30.37926 | -98.65971 | 26419 ft | 400 kts | 282° |
| 2026-04-25 10:06 | 30.38528 | -98.69114 | 26900 ft | 398 kts | 282° |
| 2026-04-25 10:07 | 30.39128 | -98.72232 | 27373 ft | 395 kts | 282° |
| 2026-04-25 10:07 | 30.39725 | -98.75336 | 27861 ft | 392 kts | 282° |
| 2026-04-25 10:07 | 30.40311 | -98.78386 | 28331 ft | 390 kts | 282° |
| 2026-04-25 10:07 | 30.40899 | -98.81455 | 28826 ft | 387 kts | 282° |
| 2026-04-25 10:08 | 30.41479 | -98.84495 | 29311 ft | 385 kts | 282° |
| 2026-04-25 10:08 | 30.42050 | -98.87491 | 29793 ft | 383 kts | 283° |
| 2026-04-25 10:08 | 30.42629 | -98.90509 | 30218 ft | 380 kts | 283° |
| 2026-04-25 10:08 | 30.43202 | -98.93493 | 30636 ft | 378 kts | 283° |
| 2026-04-25 10:09 | 30.43771 | -98.96461 | 31050 ft | 376 kts | 283° |
| 2026-04-25 10:09 | 30.44331 | -98.99380 | 31472 ft | 373 kts | 283° |
| 2026-04-25 10:09 | 30.44895 | -99.02316 | 31899 ft | 371 kts | 283° |
| 2026-04-25 10:09 | 30.45452 | -99.05227 | 32347 ft | 368 kts | 283° |
| 2026-04-25 10:10 | 30.45997 | -99.08082 | 32768 ft | 365 kts | 283° |
| 2026-04-25 10:10 | 30.46544 | -99.10962 | 33169 ft | 363 kts | 283° |
| 2026-04-25 10:10 | 30.47088 | -99.13827 | 33568 ft | 361 kts | 283° |
| 2026-04-25 10:10 | 30.47622 | -99.16641 | 33715 ft | 361 kts | 283° |
| 2026-04-25 10:11 | 30.48702 | -99.22348 | 33736 ft | 360 kts | 283° |
| 2026-04-25 10:11 | 30.49770 | -99.27995 | 33736 ft | 359 kts | 283° |
| 2026-04-25 10:12 | 30.50840 | -99.33667 | 33736 ft | 359 kts | 283° |
| 2026-04-25 10:13 | 30.52437 | -99.42152 | 33759 ft | 359 kts | 283° |
| 2026-04-25 10:13 | 30.53497 | -99.47790 | 33767 ft | 359 kts | 283° |
| 2026-04-25 10:14 | 30.54560 | -99.53479 | 33799 ft | 360 kts | 283° |
| 2026-04-25 10:14 | 30.55616 | -99.59141 | 33815 ft | 360 kts | 283° |
| 2026-04-25 10:15 | 30.56669 | -99.64817 | 33832 ft | 360 kts | 283° |
| 2026-04-25 10:15 | 30.57727 | -99.70530 | 33841 ft | 360 kts | 283° |
| 2026-04-25 10:16 | 30.58775 | -99.76206 | 33846 ft | 360 kts | 283° |
| 2026-04-25 10:16 | 30.59820 | -99.81892 | 33837 ft | 360 kts | 282° |
| 2026-04-25 10:17 | 30.60636 | -99.87603 | 33822 ft | 360 kts | 279° |
| 2026-04-25 10:17 | 30.61291 | -99.93394 | 33806 ft | 360 kts | 279° |
| 2026-04-25 10:18 | 30.61971 | -99.99222 | 33792 ft | 372 kts | 279° |
| 2026-04-25 10:18 | 30.62708 | -100.05273 | 33774 ft | 385 kts | 279° |
| 2026-04-25 10:19 | 30.63471 | -100.11471 | 33754 ft | 395 kts | 279° |
| 2026-04-25 10:19 | 30.64250 | -100.17842 | 33745 ft | 398 kts | 279° |
| 2026-04-25 10:20 | 30.65022 | -100.24208 | 33744 ft | 399 kts | 279° |
| 2026-04-25 10:20 | 30.65797 | -100.30599 | 33750 ft | 398 kts | 279° |
| 2026-04-25 10:21 | 30.66565 | -100.36956 | 33804 ft | 399 kts | 279° |
| 2026-04-25 10:21 | 30.67327 | -100.43333 | 33831 ft | 399 kts | 279° |
| 2026-04-25 10:22 | 30.68088 | -100.49707 | 33853 ft | 399 kts | 279° |
| 2026-04-25 10:22 | 30.68850 | -100.56097 | 33869 ft | 399 kts | 279° |
| 2026-04-25 10:23 | 30.69603 | -100.62451 | 33884 ft | 398 kts | 278° |
| 2026-04-25 10:23 | 30.70361 | -100.68835 | 33885 ft | 397 kts | 278° |
| 2026-04-25 10:24 | 30.71109 | -100.75171 | 33861 ft | 397 kts | 278° |
| 2026-04-25 10:24 | 30.71849 | -100.81556 | 33840 ft | 397 kts | 278° |
| 2026-04-25 10:25 | 30.72587 | -100.87892 | 33814 ft | 397 kts | 278° |
| 2026-04-25 10:25 | 30.73329 | -100.94290 | 33814 ft | 397 kts | 278° |
| 2026-04-25 10:26 | 30.74060 | -101.00643 | 33848 ft | 398 kts | 278° |
| 2026-04-25 10:26 | 30.74791 | -101.07004 | 33863 ft | 398 kts | 278° |
| 2026-04-25 10:27 | 30.75525 | -101.13394 | 33879 ft | 397 kts | 278° |
| 2026-04-25 10:27 | 30.76252 | -101.19741 | 33882 ft | 396 kts | 278° |
| 2026-04-25 10:28 | 30.76965 | -101.26094 | 33741 ft | 395 kts | 278° |
| 2026-04-25 10:28 | 30.77675 | -101.32424 | 33744 ft | 394 kts | 278° |
| 2026-04-25 10:29 | 30.78389 | -101.38750 | 33736 ft | 393 kts | 278° |
| 2026-04-25 10:29 | 30.79098 | -101.45064 | 33736 ft | 393 kts | 278° |
| 2026-04-25 10:30 | 30.79802 | -101.51373 | 33736 ft | 393 kts | 278° |
| 2026-04-25 10:30 | 30.80500 | -101.57655 | 33736 ft | 393 kts | 278° |
| 2026-04-25 10:31 | 30.81197 | -101.63991 | 33730 ft | 393 kts | 278° |
| 2026-04-25 10:31 | 30.81888 | -101.70286 | 33727 ft | 392 kts | 278° |
| 2026-04-25 10:32 | 30.82577 | -101.76572 | 33722 ft | 391 kts | 278° |
| 2026-04-25 10:32 | 30.83257 | -101.82846 | 33726 ft | 391 kts | 278° |
| 2026-04-25 10:33 | 30.83935 | -101.89090 | 33722 ft | 391 kts | 278° |
| 2026-04-25 10:33 | 30.84622 | -101.95378 | 33720 ft | 391 kts | 278° |
| 2026-04-25 10:34 | 30.85292 | -102.01646 | 33716 ft | 391 kts | 278° |
| 2026-04-25 10:34 | 30.85958 | -102.07921 | 33717 ft | 391 kts | 277° |
| 2026-04-25 10:35 | 30.86632 | -102.14191 | 33721 ft | 391 kts | 277° |
| 2026-04-25 10:35 | 30.87305 | -102.20493 | 33723 ft | 391 kts | 277° |
| 2026-04-25 10:36 | 30.87962 | -102.26769 | 33720 ft | 391 kts | 277° |
| 2026-04-25 10:36 | 30.88616 | -102.33026 | 33722 ft | 391 kts | 277° |
| 2026-04-25 10:37 | 30.89275 | -102.39324 | 33727 ft | 391 kts | 277° |
| 2026-04-25 10:37 | 30.89925 | -102.45608 | 33724 ft | 391 kts | 277° |
| 2026-04-25 10:38 | 30.90571 | -102.51877 | 33740 ft | 391 kts | 277° |
| 2026-04-25 10:38 | 30.91220 | -102.58145 | 33760 ft | 389 kts | 277° |
| 2026-04-25 10:39 | 30.91864 | -102.64382 | 33787 ft | 389 kts | 277° |
| 2026-04-25 10:39 | 30.92502 | -102.70646 | 33815 ft | 389 kts | 277° |
| 2026-04-25 10:40 | 30.93135 | -102.76894 | 33844 ft | 388 kts | 277° |
| 2026-04-25 10:40 | 30.93764 | -102.83138 | 33716 ft | 388 kts | 277° |
| 2026-04-25 10:41 | 30.94386 | -102.89371 | 33718 ft | 388 kts | 277° |
| 2026-04-25 10:41 | 30.95019 | -102.95644 | 33716 ft | 388 kts | 277° |
| 2026-04-25 10:42 | 30.96088 | -103.00727 | 33716 ft | 389 kts | 286° |
| 2026-04-25 10:42 | 30.98025 | -103.07726 | 33711 ft | 389 kts | 285° |
| 2026-04-25 10:43 | 30.99678 | -103.13754 | 33718 ft | 389 kts | 285° |
| 2026-04-25 10:43 | 31.01044 | -103.18729 | 33712 ft | 389 kts | 285° |
| 2026-04-25 10:44 | 31.02966 | -103.25742 | 33717 ft | 389 kts | 285° |
| 2026-04-25 10:44 | 31.04339 | -103.30770 | 33717 ft | 389 kts | 285° |
| 2026-04-25 10:45 | 31.06253 | -103.37780 | 33729 ft | 389 kts | 285° |
| 2026-04-25 10:45 | 31.07627 | -103.42795 | 33744 ft | 389 kts | 285° |
| 2026-04-25 10:46 | 31.09261 | -103.48784 | 33770 ft | 388 kts | 285° |
| 2026-04-25 10:46 | 31.10881 | -103.54756 | 33774 ft | 387 kts | 285° |
| 2026-04-25 10:47 | 31.12511 | -103.60780 | 33775 ft | 387 kts | 285° |
| 2026-04-25 10:47 | 31.14128 | -103.66773 | 33778 ft | 387 kts | 285° |
| 2026-04-25 10:48 | 31.15741 | -103.72743 | 33769 ft | 387 kts | 285° |
| 2026-04-25 10:48 | 31.17364 | -103.78768 | 33772 ft | 387 kts | 285° |
| 2026-04-25 10:49 | 31.18971 | -103.84749 | 33762 ft | 387 kts | 285° |
| 2026-04-25 10:49 | 31.20584 | -103.90773 | 33738 ft | 390 kts | 285° |
| 2026-04-25 10:50 | 31.22200 | -103.96824 | 33767 ft | 390 kts | 285° |
| 2026-04-25 10:50 | 31.23820 | -104.02888 | 33757 ft | 391 kts | 285° |
| 2026-04-25 10:51 | 31.25434 | -104.08928 | 33787 ft | 391 kts | 285° |
| 2026-04-25 10:51 | 31.27053 | -104.15010 | 33786 ft | 390 kts | 285° |
| 2026-04-25 10:52 | 31.28656 | -104.21067 | 33788 ft | 389 kts | 285° |
| 2026-04-25 10:52 | 31.30246 | -104.27069 | 33780 ft | 389 kts | 284° |
| 2026-04-25 10:53 | 31.31857 | -104.33147 | 33784 ft | 389 kts | 284° |
| 2026-04-25 10:53 | 31.33452 | -104.39197 | 33784 ft | 389 kts | 284° |
| 2026-04-25 10:54 | 31.35037 | -104.45221 | 33784 ft | 389 kts | 284° |
| 2026-04-25 10:54 | 31.36635 | -104.51300 | 33771 ft | 389 kts | 284° |
| 2026-04-25 10:55 | 31.38217 | -104.57351 | 33771 ft | 390 kts | 284° |
| 2026-04-25 10:55 | 31.39805 | -104.63419 | 33769 ft | 389 kts | 284° |
| 2026-04-25 10:56 | 31.41380 | -104.69457 | 33774 ft | 389 kts | 284° |
| 2026-04-25 10:56 | 31.42963 | -104.75536 | 33772 ft | 389 kts | 284° |
| 2026-04-25 10:57 | 31.44544 | -104.81623 | 33768 ft | 389 kts | 284° |
| 2026-04-25 10:57 | 31.46109 | -104.87663 | 33766 ft | 388 kts | 284° |
| 2026-04-25 10:58 | 31.47673 | -104.93723 | 33777 ft | 389 kts | 284° |
| 2026-04-25 10:58 | 31.49233 | -104.99771 | 33771 ft | 390 kts | 284° |
| 2026-04-25 10:59 | 31.50811 | -105.05869 | 33763 ft | 390 kts | 284° |
| 2026-04-25 10:59 | 31.52377 | -105.11947 | 33769 ft | 391 kts | 283° |
| 2026-04-25 11:00 | 31.53935 | -105.18036 | 33769 ft | 391 kts | 283° |
| 2026-04-25 11:00 | 31.55497 | -105.24141 | 33777 ft | 391 kts | 283° |
| 2026-04-25 11:01 | 31.57053 | -105.30249 | 33785 ft | 391 kts | 283° |
| 2026-04-25 11:01 | 31.58607 | -105.36368 | 33767 ft | 390 kts | 283° |
| 2026-04-25 11:02 | 31.60156 | -105.42449 | 33766 ft | 390 kts | 283° |
| 2026-04-25 11:02 | 31.61709 | -105.48535 | 33766 ft | 390 kts | 283° |
| 2026-04-25 11:03 | 31.63264 | -105.54670 | 33770 ft | 390 kts | 283° |
| 2026-04-25 11:03 | 31.64796 | -105.60758 | 33772 ft | 390 kts | 283° |
| 2026-04-25 11:04 | 31.66333 | -105.66881 | 33766 ft | 392 kts | 283° |
| 2026-04-25 11:04 | 31.67877 | -105.73020 | 33766 ft | 393 kts | 283° |
| 2026-04-25 11:05 | 31.69427 | -105.79183 | 33767 ft | 393 kts | 283° |
| 2026-04-25 11:05 | 31.70959 | -105.85314 | 33766 ft | 393 kts | 283° |
| 2026-04-25 11:06 | 31.72496 | -105.91492 | 33758 ft | 393 kts | 283° |
| 2026-04-25 11:06 | 31.74034 | -105.97667 | 33768 ft | 393 kts | 283° |
| 2026-04-25 11:07 | 31.75561 | -106.03786 | 33809 ft | 392 kts | 283° |
| 2026-04-25 11:07 | 31.77094 | -106.09964 | 33845 ft | 392 kts | 283° |
| 2026-04-25 11:08 | 31.78611 | -106.16108 | 33883 ft | 392 kts | 283° |
| 2026-04-25 11:08 | 31.80126 | -106.22247 | 33924 ft | 392 kts | 283° |
| 2026-04-25 11:09 | 31.81562 | -106.28413 | 33953 ft | 389 kts | 277° |
| 2026-04-25 11:09 | 31.82091 | -106.34712 | 33997 ft | 389 kts | 274° |
| 2026-04-25 11:10 | 31.82569 | -106.41059 | 33950 ft | 388 kts | 274° |
| 2026-04-25 11:10 | 31.83040 | -106.47368 | 33961 ft | 388 kts | 274° |
| 2026-04-25 11:11 | 31.83509 | -106.53672 | 33929 ft | 388 kts | 274° |
| 2026-04-25 11:11 | 31.83973 | -106.59973 | 33975 ft | 388 kts | 274° |
| 2026-04-25 11:12 | 31.84438 | -106.66321 | 33978 ft | 388 kts | 274° |
| 2026-04-25 11:12 | 31.84897 | -106.72607 | 33978 ft | 389 kts | 274° |
| 2026-04-25 11:13 | 31.85362 | -106.78971 | 33983 ft | 390 kts | 274° |
| 2026-04-25 11:13 | 31.85822 | -106.85331 | 33947 ft | 390 kts | 274° |
| 2026-04-25 11:13 | 31.86051 | -106.88513 | 33762 ft | 390 kts | 274° |
| 2026-04-25 11:14 | 31.86280 | -106.91692 | 33771 ft | 390 kts | 274° |
| 2026-04-25 11:14 | 31.86733 | -106.98030 | 33772 ft | 390 kts | 273° |
| 2026-04-25 11:15 | 31.87176 | -107.04402 | 33774 ft | 390 kts | 273° |
| 2026-04-25 11:15 | 31.87621 | -107.10765 | 33780 ft | 392 kts | 273° |
| 2026-04-25 11:16 | 31.88294 | -107.20360 | 33784 ft | 392 kts | 273° |
| 2026-04-25 11:16 | 31.88737 | -107.26793 | 33783 ft | 393 kts | 273° |
| 2026-04-25 11:17 | 31.89169 | -107.33188 | 33791 ft | 393 kts | 273° |
| 2026-04-25 11:17 | 31.89601 | -107.39590 | 33791 ft | 393 kts | 273° |
| 2026-04-25 11:18 | 31.90035 | -107.45998 | 33791 ft | 394 kts | 273° |
| 2026-04-25 11:18 | 31.90466 | -107.52455 | 33797 ft | 394 kts | 273° |
| 2026-04-25 11:19 | 31.90890 | -107.58876 | 34103 ft | 393 kts | 273° |
| 2026-04-25 11:19 | 31.91101 | -107.62076 | 34361 ft | 391 kts | 273° |
| 2026-04-25 11:19 | 31.91309 | -107.65242 | 34613 ft | 389 kts | 273° |
| 2026-04-25 11:20 | 31.91518 | -107.68419 | 34860 ft | 386 kts | 273° |
| 2026-04-25 11:20 | 31.91721 | -107.71529 | 35086 ft | 384 kts | 272° |
| 2026-04-25 11:20 | 31.91922 | -107.74662 | 35308 ft | 383 kts | 273° |
| 2026-04-25 11:20 | 31.92121 | -107.77789 | 35536 ft | 381 kts | 273° |
| 2026-04-25 11:21 | 31.92325 | -107.80893 | 35732 ft | 380 kts | 273° |
| 2026-04-25 11:21 | 31.92536 | -107.83970 | 35795 ft | 379 kts | 273° |
| 2026-04-25 11:21 | 31.92954 | -107.90161 | 35808 ft | 378 kts | 273° |
| 2026-04-25 11:22 | 31.93298 | -107.95317 | 35808 ft | 378 kts | 273° |
| 2026-04-25 11:22 | 31.93780 | -108.02524 | 35811 ft | 378 kts | 273° |
| 2026-04-25 11:23 | 31.94188 | -108.08678 | 35810 ft | 378 kts | 273° |
| 2026-04-25 11:23 | 31.94592 | -108.14861 | 35811 ft | 379 kts | 273° |
| 2026-04-25 11:24 | 31.94995 | -108.21037 | 35818 ft | 379 kts | 273° |
| 2026-04-25 11:24 | 31.95395 | -108.27206 | 35822 ft | 379 kts | 273° |
| 2026-04-25 11:25 | 31.95789 | -108.33386 | 35823 ft | 379 kts | 273° |
| 2026-04-25 11:25 | 31.96184 | -108.39590 | 35824 ft | 379 kts | 273° |
| 2026-04-25 11:26 | 31.96579 | -108.45805 | 35828 ft | 379 kts | 272° |
| 2026-04-25 11:26 | 31.96965 | -108.51971 | 35831 ft | 380 kts | 272° |
| 2026-04-25 11:27 | 31.97353 | -108.58195 | 35834 ft | 379 kts | 272° |
| 2026-04-25 11:27 | 31.97604 | -108.62317 | 35830 ft | 379 kts | 272° |
| 2026-04-25 11:28 | 31.98109 | -108.70569 | 35835 ft | 379 kts | 272° |
| 2026-04-25 11:28 | 31.98484 | -108.76758 | 35829 ft | 378 kts | 272° |
| 2026-04-25 11:29 | 31.98794 | -108.81914 | 35834 ft | 378 kts | 272° |
| 2026-04-25 11:29 | 31.99161 | -108.88050 | 35833 ft | 377 kts | 272° |
| 2026-04-25 11:30 | 31.99528 | -108.94228 | 35834 ft | 377 kts | 272° |
| 2026-04-25 11:30 | 31.99891 | -109.00375 | 35830 ft | 377 kts | 272° |
| 2026-04-25 11:31 | 32.00247 | -109.06547 | 35828 ft | 376 kts | 272° |
| 2026-04-25 11:31 | 32.00600 | -109.12697 | 35818 ft | 376 kts | 272° |
| 2026-04-25 11:32 | 32.00950 | -109.18849 | 35824 ft | 376 kts | 272° |
| 2026-04-25 11:32 | 32.01296 | -109.24976 | 35825 ft | 376 kts | 272° |
| 2026-04-25 11:33 | 32.01647 | -109.31161 | 35832 ft | 376 kts | 272° |
| 2026-04-25 11:33 | 32.01995 | -109.37303 | 35834 ft | 376 kts | 272° |
| 2026-04-25 11:34 | 32.02332 | -109.43438 | 35836 ft | 376 kts | 272° |
| 2026-04-25 11:34 | 32.02667 | -109.49569 | 35846 ft | 376 kts | 272° |
| 2026-04-25 11:35 | 32.03002 | -109.55724 | 35850 ft | 375 kts | 272° |
| 2026-04-25 11:35 | 32.03331 | -109.61873 | 35847 ft | 375 kts | 272° |
| 2026-04-25 11:36 | 32.03663 | -109.67990 | 35850 ft | 374 kts | 272° |
| 2026-04-25 11:36 | 32.03991 | -109.74118 | 35848 ft | 374 kts | 272° |
| 2026-04-25 11:37 | 32.04313 | -109.80205 | 35846 ft | 374 kts | 272° |
| 2026-04-25 11:37 | 32.04631 | -109.86322 | 35848 ft | 374 kts | 272° |
| 2026-04-25 11:38 | 32.04941 | -109.92474 | 35850 ft | 374 kts | 272° |
| 2026-04-25 11:38 | 32.05247 | -109.98580 | 35856 ft | 374 kts | 271° |
| 2026-04-25 11:39 | 32.05558 | -110.04719 | 35882 ft | 374 kts | 272° |
| 2026-04-25 11:39 | 32.05861 | -110.10810 | 35876 ft | 374 kts | 271° |
| 2026-04-25 11:40 | 32.06165 | -110.16941 | 35862 ft | 374 kts | 271° |
| 2026-04-25 11:40 | 32.06467 | -110.23061 | 35884 ft | 374 kts | 271° |
| 2026-04-25 11:41 | 32.06756 | -110.29188 | 35885 ft | 374 kts | 271° |
| 2026-04-25 11:41 | 32.07037 | -110.35288 | 35902 ft | 374 kts | 271° |
| 2026-04-25 11:42 | 32.07315 | -110.41406 | 35900 ft | 374 kts | 271° |
| 2026-04-25 11:42 | 32.07593 | -110.47525 | 35916 ft | 374 kts | 271° |
| 2026-04-25 11:43 | 32.07871 | -110.53650 | 35919 ft | 374 kts | 271° |
| 2026-04-25 11:43 | 32.08144 | -110.59776 | 35924 ft | 373 kts | 271° |
| 2026-04-25 11:44 | 32.08416 | -110.65904 | 35947 ft | 373 kts | 271° |
| 2026-04-25 11:44 | 32.08688 | -110.72007 | 35953 ft | 373 kts | 271° |
| 2026-04-25 11:45 | 32.08958 | -110.78100 | 35953 ft | 373 kts | 271° |
| 2026-04-25 11:45 | 32.09215 | -110.84207 | 35980 ft | 373 kts | 271° |
| 2026-04-25 11:46 | 32.09628 | -110.90297 | 35979 ft | 375 kts | 279° |
| 2026-04-25 11:46 | 32.11760 | -110.95967 | 35978 ft | 386 kts | 293° |
| 2026-04-25 11:47 | 32.14504 | -111.01431 | 35975 ft | 386 kts | 293° |
| 2026-04-25 11:47 | 32.17226 | -111.06894 | 35975 ft | 386 kts | 293° |
| 2026-04-25 11:48 | 32.19937 | -111.12332 | 35943 ft | 386 kts | 293° |
| 2026-04-25 11:48 | 32.22678 | -111.17818 | 35913 ft | 386 kts | 293° |
| 2026-04-25 11:49 | 32.25400 | -111.23279 | 35882 ft | 386 kts | 292° |
| 2026-04-25 11:49 | 32.28108 | -111.28751 | 35848 ft | 385 kts | 292° |
| 2026-04-25 11:50 | 32.30806 | -111.34205 | 35838 ft | 386 kts | 292° |
| 2026-04-25 11:50 | 32.33518 | -111.39681 | 35832 ft | 385 kts | 293° |
| 2026-04-25 11:51 | 32.36210 | -111.45128 | 35885 ft | 384 kts | 292° |
| 2026-04-25 11:51 | 32.38902 | -111.50589 | 35879 ft | 384 kts | 292° |
| 2026-04-25 11:52 | 32.41598 | -111.56057 | 35875 ft | 385 kts | 292° |
| 2026-04-25 11:52 | 32.44280 | -111.61500 | 35820 ft | 385 kts | 292° |
| 2026-04-25 11:53 | 32.46986 | -111.67004 | 35821 ft | 385 kts | 292° |
| 2026-04-25 11:53 | 32.49670 | -111.72492 | 35830 ft | 385 kts | 292° |
| 2026-04-25 11:54 | 32.52357 | -111.77974 | 35843 ft | 385 kts | 292° |
| 2026-04-25 11:55 | 32.56378 | -111.86185 | 35837 ft | 384 kts | 292° |
| 2026-04-25 11:55 | 32.59050 | -111.91664 | 35834 ft | 385 kts | 292° |
| 2026-04-25 11:56 | 32.61743 | -111.97186 | 35830 ft | 385 kts | 292° |
| 2026-04-25 11:56 | 32.64403 | -112.02659 | 35836 ft | 385 kts | 292° |
| 2026-04-25 11:57 | 32.67086 | -112.08186 | 35846 ft | 385 kts | 292° |
| 2026-04-25 11:57 | 32.69766 | -112.13686 | 35837 ft | 385 kts | 292° |
| 2026-04-25 11:58 | 32.72444 | -112.19214 | 35851 ft | 384 kts | 292° |
| 2026-04-25 11:58 | 32.75091 | -112.24679 | 35841 ft | 384 kts | 292° |
| 2026-04-25 11:59 | 32.77754 | -112.30185 | 35838 ft | 384 kts | 292° |
| 2026-04-25 11:59 | 32.80421 | -112.35722 | 35836 ft | 384 kts | 292° |
| 2026-04-25 12:00 | 32.84399 | -112.43999 | 35838 ft | 385 kts | 292° |
| 2026-04-25 12:01 | 32.88370 | -112.52265 | 35854 ft | 385 kts | 292° |
| 2026-04-25 12:01 | 32.91033 | -112.57816 | 35884 ft | 385 kts | 292° |
| 2026-04-25 12:02 | 32.94621 | -112.66286 | 35878 ft | 375 kts | 279° |
| 2026-04-25 12:02 | 32.94967 | -112.72338 | 35873 ft | 367 kts | 261° |
| 2026-04-25 12:03 | 32.94142 | -112.78363 | 35856 ft | 368 kts | 261° |
| 2026-04-25 12:03 | 32.93334 | -112.84395 | 35850 ft | 369 kts | 261° |
| 2026-04-25 12:04 | 32.92529 | -112.90406 | 35845 ft | 369 kts | 261° |
| 2026-04-25 12:04 | 32.91715 | -112.96436 | 35839 ft | 369 kts | 261° |
| 2026-04-25 12:05 | 32.90896 | -113.02461 | 35832 ft | 369 kts | 261° |
| 2026-04-25 12:05 | 32.90073 | -113.08507 | 35825 ft | 370 kts | 261° |
| 2026-04-25 12:06 | 32.89246 | -113.14516 | 35818 ft | 370 kts | 261° |
| 2026-04-25 12:06 | 32.88405 | -113.20585 | 35818 ft | 370 kts | 261° |
| 2026-04-25 12:07 | 32.87569 | -113.26623 | 35820 ft | 370 kts | 261° |
| 2026-04-25 12:07 | 32.86730 | -113.32664 | 35820 ft | 370 kts | 261° |
| 2026-04-25 12:08 | 32.86036 | -113.37683 | 35819 ft | 370 kts | 261° |
| 2026-04-25 12:08 | 32.85194 | -113.43735 | 35798 ft | 371 kts | 260° |
| 2026-04-25 12:09 | 32.84199 | -113.50797 | 35810 ft | 371 kts | 260° |
| 2026-04-25 12:09 | 32.83346 | -113.56847 | 35813 ft | 371 kts | 260° |
| 2026-04-25 12:10 | 32.82486 | -113.62906 | 35822 ft | 371 kts | 260° |
| 2026-04-25 12:10 | 32.81627 | -113.68936 | 35830 ft | 371 kts | 260° |
| 2026-04-25 12:11 | 32.80764 | -113.75007 | 35824 ft | 371 kts | 260° |
| 2026-04-25 12:11 | 32.79905 | -113.81027 | 35826 ft | 372 kts | 260° |
| 2026-04-25 12:12 | 32.79184 | -113.86084 | 35827 ft | 372 kts | 260° |
| 2026-04-25 12:12 | 32.78170 | -113.93137 | 35836 ft | 372 kts | 260° |
| 2026-04-25 12:13 | 32.77566 | -113.98225 | 35834 ft | 373 kts | 266° |
| 2026-04-25 12:13 | 32.77506 | -114.04389 | 35848 ft | 373 kts | 267° |
| 2026-04-25 12:14 | 32.77532 | -114.10541 | 35851 ft | 374 kts | 269° |
| 2026-04-25 12:14 | 32.77804 | -114.16701 | 35851 ft | 374 kts | 270° |
| 2026-04-25 12:15 | 32.78113 | -114.22905 | 35863 ft | 374 kts | 269° |
| 2026-04-25 12:15 | 32.78375 | -114.29050 | 35851 ft | 374 kts | 269° |
| 2026-04-25 12:16 | 32.78611 | -114.35217 | 35859 ft | 374 kts | 269° |
| 2026-04-25 12:16 | 32.79488 | -114.41361 | 35873 ft | 382 kts | 281° |
| 2026-04-25 12:17 | 32.81151 | -114.47348 | 35863 ft | 382 kts | 282° |
| 2026-04-25 12:17 | 32.82809 | -114.53358 | 35858 ft | 382 kts | 281° |
| 2026-04-25 12:18 | 32.84452 | -114.59356 | 35852 ft | 382 kts | 281° |
| 2026-04-25 12:18 | 32.86099 | -114.65378 | 35861 ft | 382 kts | 281° |
| 2026-04-25 12:19 | 32.87890 | -114.74439 | 35832 ft | 361 kts | 266° |
| 2026-04-25 12:20 | 32.87757 | -114.80349 | 35839 ft | 355 kts | 265° |
| 2026-04-25 12:20 | 32.87626 | -114.86189 | 35836 ft | 354 kts | 265° |
| 2026-04-25 12:21 | 32.87495 | -114.92043 | 35834 ft | 353 kts | 265° |
| 2026-04-25 12:21 | 32.87369 | -114.97894 | 35831 ft | 354 kts | 265° |
| 2026-04-25 12:22 | 32.87235 | -115.03717 | 35842 ft | 354 kts | 265° |
| 2026-04-25 12:22 | 32.87163 | -115.06653 | 35625 ft | 355 kts | 265° |
| 2026-04-25 12:22 | 32.87093 | -115.09612 | 34988 ft | 356 kts | 265° |
| 2026-04-25 12:22 | 32.87021 | -115.12541 | 34386 ft | 356 kts | 265° |
| 2026-04-25 12:23 | 32.86946 | -115.15498 | 33754 ft | 357 kts | 266° |
| 2026-04-25 12:23 | 32.86871 | -115.18448 | 32987 ft | 360 kts | 266° |
| 2026-04-25 12:23 | 32.86799 | -115.21436 | 32271 ft | 361 kts | 266° |
| 2026-04-25 12:23 | 32.86727 | -115.24438 | 31548 ft | 363 kts | 266° |
| 2026-04-25 12:24 | 32.86651 | -115.27451 | 30834 ft | 365 kts | 266° |
| 2026-04-25 12:24 | 32.86573 | -115.30475 | 30026 ft | 369 kts | 266° |
| 2026-04-25 12:24 | 32.86485 | -115.33519 | 29136 ft | 371 kts | 264° |
| 2026-04-25 12:24 | 32.86146 | -115.36573 | 28282 ft | 373 kts | 259° |
| 2026-04-25 12:25 | 32.85724 | -115.39583 | 27751 ft | 367 kts | 259° |
| 2026-04-25 12:25 | 32.85303 | -115.42568 | 27118 ft | 366 kts | 259° |
| 2026-04-25 12:25 | 32.84879 | -115.45558 | 26483 ft | 364 kts | 259° |
| 2026-04-25 12:25 | 32.84458 | -115.48537 | 25856 ft | 363 kts | 259° |
| 2026-04-25 12:26 | 32.84021 | -115.51491 | 25365 ft | 366 kts | 258° |
| 2026-04-25 12:26 | 32.83543 | -115.54473 | 24894 ft | 376 kts | 258° |
| 2026-04-25 12:26 | 32.83032 | -115.57545 | 24400 ft | 377 kts | 258° |
| 2026-04-25 12:26 | 32.82515 | -115.60608 | 23906 ft | 377 kts | 257° |
| 2026-04-25 12:27 | 32.82001 | -115.63663 | 23447 ft | 376 kts | 258° |
| 2026-04-25 12:27 | 32.81497 | -115.66690 | 22897 ft | 374 kts | 258° |
| 2026-04-25 12:27 | 32.80996 | -115.69731 | 22407 ft | 372 kts | 258° |
| 2026-04-25 12:27 | 32.80504 | -115.72743 | 21921 ft | 370 kts | 258° |
| 2026-04-25 12:28 | 32.80018 | -115.75714 | 21443 ft | 369 kts | 258° |
| 2026-04-25 12:28 | 32.79521 | -115.78708 | 20962 ft | 367 kts | 258° |
| 2026-04-25 12:28 | 32.79023 | -115.81682 | 20488 ft | 365 kts | 258° |
| 2026-04-25 12:28 | 32.78544 | -115.84613 | 20018 ft | 363 kts | 260° |
| 2026-04-25 12:29 | 32.78291 | -115.87602 | 19549 ft | 362 kts | 264° |
| 2026-04-25 12:29 | 32.78073 | -115.90584 | 19085 ft | 361 kts | 264° |
| 2026-04-25 12:29 | 32.77856 | -115.93550 | 18620 ft | 359 kts | 264° |
| 2026-04-25 12:29 | 32.77641 | -115.96470 | 18154 ft | 358 kts | 263° |
| 2026-04-25 12:30 | 32.77420 | -115.99424 | 17689 ft | 356 kts | 263° |
| 2026-04-25 12:30 | 32.77202 | -116.02326 | 17224 ft | 354 kts | 263° |
| 2026-04-25 12:30 | 32.76983 | -116.05240 | 16769 ft | 352 kts | 263° |
| 2026-04-25 12:30 | 32.76764 | -116.08139 | 16314 ft | 349 kts | 264° |
| 2026-04-25 12:31 | 32.76552 | -116.10964 | 15872 ft | 347 kts | 264° |
| 2026-04-25 12:31 | 32.76338 | -116.13816 | 15445 ft | 344 kts | 264° |
| 2026-04-25 12:31 | 32.76122 | -116.16666 | 14991 ft | 342 kts | 263° |
| 2026-04-25 12:31 | 32.75911 | -116.19437 | 14554 ft | 340 kts | 263° |
| 2026-04-25 12:32 | 32.75696 | -116.22206 | 14379 ft | 327 kts | 263° |
| 2026-04-25 12:32 | 32.75493 | -116.24816 | 14260 ft | 314 kts | 263° |
| 2026-04-25 12:32 | 32.75293 | -116.27370 | 14064 ft | 304 kts | 263° |
| 2026-04-25 12:32 | 32.75100 | -116.29829 | 13783 ft | 298 kts | 263° |
| 2026-04-25 12:33 | 32.74909 | -116.32276 | 13411 ft | 295 kts | 263° |
| 2026-04-25 12:33 | 32.74723 | -116.34702 | 12971 ft | 293 kts | 263° |
| 2026-04-25 12:33 | 32.74538 | -116.37100 | 12528 ft | 292 kts | 263° |
| 2026-04-25 12:33 | 32.74351 | -116.39502 | 12108 ft | 290 kts | 263° |
| 2026-04-25 12:34 | 32.74167 | -116.41870 | 11663 ft | 290 kts | 263° |
| 2026-04-25 12:34 | 32.73982 | -116.44249 | 11240 ft | 289 kts | 263° |
| 2026-04-25 12:34 | 32.73798 | -116.46586 | 11112 ft | 278 kts | 263° |
| 2026-04-25 12:34 | 32.73681 | -116.48090 | 11027 ft | 271 kts | 263° |
| 2026-04-25 12:35 | 32.73450 | -116.51003 | 10763 ft | 261 kts | 263° |
| 2026-04-25 12:35 | 32.73255 | -116.53123 | 10518 ft | 258 kts | 262° |
| 2026-04-25 12:35 | 32.73046 | -116.55245 | 10202 ft | 257 kts | 262° |
| 2026-04-25 12:35 | 32.72836 | -116.57340 | 9879 ft | 256 kts | 262° |
| 2026-04-25 12:36 | 32.72628 | -116.59435 | 9528 ft | 256 kts | 262° |
| 2026-04-25 12:36 | 32.72421 | -116.61539 | 9186 ft | 256 kts | 262° |
| 2026-04-25 12:36 | 32.72218 | -116.63619 | 8858 ft | 255 kts | 262° |
| 2026-04-25 12:36 | 32.72014 | -116.65721 | 8530 ft | 255 kts | 263° |
| 2026-04-25 12:37 | 32.71826 | -116.67819 | 8201 ft | 255 kts | 264° |
| 2026-04-25 12:37 | 32.71659 | -116.69902 | 7875 ft | 255 kts | 264° |
| 2026-04-25 12:37 | 32.71499 | -116.71989 | 7548 ft | 251 kts | 264° |
| 2026-04-25 12:37 | 32.71343 | -116.74053 | 7225 ft | 250 kts | 265° |
| 2026-04-25 12:38 | 32.71186 | -116.76092 | 6901 ft | 250 kts | 265° |
| 2026-04-25 12:38 | 32.71024 | -116.78145 | 6579 ft | 250 kts | 265° |
| 2026-04-25 12:38 | 32.70863 | -116.80195 | 6246 ft | 251 kts | 265° |
| 2026-04-25 12:38 | 32.70599 | -116.82235 | 5912 ft | 250 kts | 253° |
| 2026-04-25 12:39 | 32.70012 | -116.84163 | 5632 ft | 248 kts | 251° |
| 2026-04-25 12:39 | 32.69408 | -116.86094 | 5351 ft | 246 kts | 250° |
| 2026-04-25 12:39 | 32.68821 | -116.87973 | 5069 ft | 244 kts | 251° |
| 2026-04-25 12:39 | 32.68239 | -116.89885 | 4792 ft | 242 kts | 251° |
| 2026-04-25 12:40 | 32.67692 | -116.91741 | 4510 ft | 241 kts | 251° |
| 2026-04-25 12:40 | 32.67354 | -116.93675 | 4230 ft | 237 kts | 270° |
| 2026-04-25 12:40 | 32.67643 | -116.95565 | 3958 ft | 235 kts | 286° |
| 2026-04-25 12:40 | 32.68106 | -116.97432 | 3685 ft | 232 kts | 285° |
| 2026-04-25 12:41 | 32.68553 | -116.99247 | 3443 ft | 230 kts | 285° |
| 2026-04-25 12:41 | 32.68995 | -117.01048 | 3172 ft | 220 kts | 284° |
| 2026-04-25 12:41 | 32.69411 | -117.02740 | 2894 ft | 208 kts | 284° |
| 2026-04-25 12:41 | 32.69799 | -117.04324 | 2667 ft | 195 kts | 284° |
| 2026-04-25 12:42 | 32.70166 | -117.05825 | 2405 ft | 183 kts | 284° |
| 2026-04-25 12:42 | 32.70397 | -117.06767 | 2239 ft | 172 kts | 284° |
| 2026-04-25 12:42 | 32.70812 | -117.08440 | 1898 ft | 149 kts | 283° |
| 2026-04-25 12:42 | 32.71087 | -117.09603 | 1657 ft | 144 kts | 281° |
| 2026-04-25 12:43 | 32.71351 | -117.10733 | 1458 ft | 142 kts | 283° |
| 2026-04-25 12:43 | 32.71635 | -117.11864 | 1256 ft | 141 kts | 283° |
| 2026-04-25 12:43 | 32.72161 | -117.14082 | 874 ft | 139 kts | 285° |
| 2026-04-25 12:44 | 32.72431 | -117.15168 | 655 ft | 137 kts | 285° |
| 2026-04-25 12:44 | 32.72694 | -117.16255 | 403 ft | 136 kts | 285° |
| 2026-04-25 12:44 | 32.73220 | -117.18394 | 25 ft | 129 kts | 285° |
| 2026-04-25 12:45 | 32.73424 | -117.19246 | 21 ft | 83 kts | 286° |
| 2026-04-25 12:45 | 32.73535 | -117.19698 | 27 ft | 28 kts | 284° |
| 2026-04-25 12:45 | 32.73491 | -117.19905 | 24 ft | 0 kts | 256° |
| 2026-04-25 12:46 | 32.73491 | -117.19909 | 24 ft | 2 kts | 257° |
| 2026-04-25 12:46 | 32.73491 | -117.19938 | 23 ft | 5 kts | 279° |
| 2026-04-25 12:46 | 32.73505 | -117.19996 | 25 ft | 9 kts | 286° |
| 2026-04-25 12:46 | 32.73525 | -117.20079 | 22 ft | 10 kts | 285° |
| 2026-04-25 12:47 | 32.73546 | -117.20166 | 23 ft | 9 kts | 286° |
| 2026-04-25 12:47 | 32.73518 | -117.20234 | 22 ft | 12 kts | 206° |
| 2026-04-25 12:47 | 32.73474 | -117.20250 | 21 ft | 1 kts | 195° |
| 2026-04-25 12:47 | 32.73456 | -117.20256 | 21 ft | 5 kts | 195° |
| 2026-04-25 12:48 | 32.73416 | -117.20269 | 21 ft | 7 kts | 195° |
| 2026-04-25 12:48 | 32.73377 | -117.20277 | 21 ft | 6 kts | 180° |
| 2026-04-25 12:48 | 32.73331 | -117.20263 | 21 ft | 8 kts | 162° |
| 2026-04-25 12:48 | 32.73297 | -117.20219 | 21 ft | 7 kts | 102° |
| 2026-04-25 12:49 | 32.73295 | -117.20183 | 21 ft | 4 kts | 90° |
| 2026-04-25 12:49 | 32.73295 | -117.20161 | 21 ft | 0 kts | 92° |